createdAt,value
2023-01-29T00:00:14.187Z,0.70
2023-01-29T00:03:02.732Z,0.70
2023-01-29T00:05:32.713Z,0.70
2023-01-29T00:08:01.138Z,0.70
2023-01-29T00:10:29.675Z,0.70
2023-01-29T00:12:58.053Z,0.70
2023-01-29T00:15:26.695Z,0.70
2023-01-29T00:17:55.022Z,0.80
2023-01-29T00:20:23.708Z,0.80
2023-01-29T00:22:53.661Z,0.80
2023-01-29T00:25:22.231Z,0.80
2023-01-29T00:27:50.414Z,0.80
2023-01-29T00:30:21.008Z,0.90
2023-01-29T00:32:49.175Z,0.90
2023-01-29T00:35:17.834Z,0.90
2023-01-29T00:37:46.187Z,0.90
2023-01-29T00:40:16.791Z,0.90
2023-01-29T00:43:03.982Z,0.90
2023-01-29T00:45:32.544Z,0.90
2023-01-29T00:48:01.068Z,1.00
2023-01-29T00:50:29.755Z,1.00
2023-01-29T00:52:58.157Z,1.00
2023-01-29T00:55:28.140Z,1.00
2023-01-29T00:57:56.678Z,1.00
2023-01-29T01:00:25.889Z,1.00
2023-01-29T01:03:08.205Z,1.00
2023-01-29T01:05:39.262Z,1.00
2023-01-29T01:08:28.625Z,1.00
2023-01-29T01:11:02.170Z,1.00
2023-01-29T01:13:32.249Z,1.10
2023-01-29T01:16:01.215Z,1.10
2023-01-29T01:18:31.791Z,1.10
2023-01-29T01:21:00.385Z,1.10
2023-01-29T01:23:28.757Z,1.10
2023-01-29T01:25:57.461Z,1.10
2023-01-29T01:28:27.120Z,1.10
2023-01-29T01:30:56.035Z,1.10
2023-01-29T01:33:24.861Z,1.10
2023-01-29T01:35:53.417Z,1.10
2023-01-29T01:38:21.670Z,1.10
2023-01-29T01:40:50.165Z,1.10
2023-01-29T01:43:18.430Z,1.10
2023-01-29T01:45:48.520Z,1.10
2023-01-29T01:48:20.660Z,1.10
2023-01-29T01:50:53.494Z,1.10
2023-01-29T01:53:27.641Z,1.10
2023-01-29T01:56:01.702Z,1.10
2023-01-29T01:58:34.463Z,1.10
2023-01-29T02:01:07.561Z,1.10
2023-01-29T02:03:56.972Z,1.20
2023-01-29T02:06:42.983Z,1.20
2023-01-29T02:09:31.601Z,1.20
2023-01-29T02:12:00.140Z,1.20
2023-01-29T02:14:28.498Z,1.20
2023-01-29T02:16:58.683Z,1.20
2023-01-29T02:19:40.258Z,1.20
2023-01-29T02:22:29.212Z,1.30
2023-01-29T02:25:23.325Z,1.30
2023-01-29T02:28:21.556Z,1.30
2023-01-29T02:31:00.389Z,1.30
2023-01-29T02:33:39.718Z,1.30
2023-01-29T02:36:17.069Z,1.30
2023-01-29T02:38:52.008Z,1.30
2023-01-29T02:41:28.375Z,1.30
2023-01-29T02:44:06.019Z,1.30
2023-01-29T02:46:38.824Z,1.30
2023-01-29T02:49:12.840Z,1.30
2023-01-29T02:51:46.291Z,1.30
2023-01-29T02:54:22.666Z,1.30
2023-01-29T02:56:56.032Z,1.30
2023-01-29T02:59:30.979Z,1.30
2023-01-29T03:02:04.354Z,1.30
2023-01-29T03:04:38.610Z,1.30
2023-01-29T03:07:11.791Z,1.30
2023-01-29T03:09:48.034Z,1.30
2023-01-29T03:12:34.121Z,1.30
2023-01-29T03:15:12.590Z,1.40
2023-01-29T03:17:46.895Z,1.30
2023-01-29T03:20:20.870Z,1.30
2023-01-29T03:22:54.007Z,1.40
2023-01-29T03:25:42.527Z,1.40
2023-01-29T03:28:30.745Z,1.40
2023-01-29T03:31:21.883Z,1.40
2023-01-29T03:33:52.875Z,1.40
2023-01-29T03:36:38.310Z,1.40
2023-01-29T03:39:07.596Z,1.40
2023-01-29T03:41:39.499Z,1.40
2023-01-29T03:44:16.012Z,1.40
2023-01-29T03:46:54.658Z,1.30
2023-01-29T03:49:32.695Z,1.30
2023-01-29T03:52:05.531Z,1.30
2023-01-29T03:54:48.018Z,1.30
2023-01-29T03:57:26.098Z,1.30
2023-01-29T04:00:02.275Z,1.40
2023-01-29T04:02:39.844Z,1.40
2023-01-29T04:05:15.108Z,1.40
2023-01-29T04:07:46.503Z,1.40
2023-01-29T04:10:18.299Z,1.40
2023-01-29T04:12:50.371Z,1.40
2023-01-29T04:15:20.136Z,1.40
2023-01-29T04:17:52.735Z,1.40
2023-01-29T04:20:21.949Z,1.40
2023-01-29T04:22:52.082Z,1.40
2023-01-29T04:25:26.703Z,1.40
2023-01-29T04:28:06.304Z,1.40
2023-01-29T04:30:42.739Z,1.40
2023-01-29T04:33:25.320Z,1.40
2023-01-29T04:36:07.253Z,1.40
2023-01-29T04:38:47.310Z,1.40
2023-01-29T04:41:24.384Z,1.40
2023-01-29T04:44:06.332Z,1.40
2023-01-29T04:46:45.055Z,1.30
2023-01-29T04:49:26.246Z,1.40
2023-01-29T04:52:02.924Z,1.30
2023-01-29T04:54:45.789Z,1.40
2023-01-29T04:57:25.555Z,1.40
2023-01-29T04:59:59.311Z,1.40
2023-01-29T05:02:28.990Z,1.40
2023-01-29T05:05:00.218Z,1.30
2023-01-29T05:07:31.969Z,1.40
2023-01-29T05:10:01.427Z,1.40
2023-01-29T05:12:31.924Z,1.40
2023-01-29T05:15:03.940Z,1.30
2023-01-29T05:17:32.445Z,1.30
2023-01-29T05:20:02.704Z,1.30
2023-01-29T05:22:31.761Z,1.30
2023-01-29T05:25:00.270Z,1.30
2023-01-29T05:27:51.033Z,1.30
2023-01-29T05:30:19.766Z,1.30
2023-01-29T05:32:48.046Z,1.30
2023-01-29T05:35:18.112Z,1.20
2023-01-29T05:37:46.501Z,1.20
2023-01-29T05:40:15.509Z,1.30
2023-01-29T05:42:44.216Z,1.20
2023-01-29T05:45:12.891Z,1.20
2023-01-29T05:47:41.108Z,1.30
2023-01-29T05:50:10.730Z,1.30
2023-01-29T05:52:40.648Z,1.20
2023-01-29T05:55:10.605Z,1.20
2023-01-29T05:57:40.458Z,1.20
2023-01-29T06:00:10.302Z,1.20
2023-01-29T06:02:38.506Z,1.20
2023-01-29T06:05:07.570Z,1.20
2023-01-29T06:07:36.165Z,1.20
2023-01-29T06:10:06.585Z,1.20
2023-01-29T06:12:34.743Z,1.20
2023-01-29T06:15:03.405Z,1.10
2023-01-29T06:17:31.852Z,1.10
2023-01-29T06:20:00.392Z,1.20
2023-01-29T06:22:28.862Z,1.20
2023-01-29T06:24:57.505Z,1.20
2023-01-29T06:27:27.252Z,1.20
2023-01-29T06:29:55.711Z,1.10
2023-01-29T06:32:24.028Z,1.20
2023-01-29T06:34:53.241Z,1.20
2023-01-29T06:37:21.588Z,1.20
2023-01-29T06:39:50.609Z,1.20
2023-01-29T06:42:20.630Z,1.20
2023-01-29T06:44:50.760Z,1.20
2023-01-29T06:47:19.037Z,1.20
2023-01-29T06:49:47.618Z,1.20
2023-01-29T06:52:15.980Z,1.20
2023-01-29T06:54:44.558Z,1.20
2023-01-29T06:57:12.819Z,1.20
2023-01-29T06:59:41.360Z,1.30
2023-01-29T07:02:12.427Z,1.30
2023-01-29T07:04:41.672Z,1.30
2023-01-29T07:07:13.500Z,1.30
2023-01-29T07:09:44.732Z,1.30
2023-01-29T07:12:13.240Z,1.30
2023-01-29T07:14:41.717Z,1.40
2023-01-29T07:17:11.531Z,1.40
2023-01-29T07:19:40.183Z,1.40
2023-01-29T07:22:08.567Z,1.40
2023-01-29T07:24:37.181Z,1.50
2023-01-29T07:27:05.530Z,1.50
2023-01-29T07:29:34.085Z,1.50
2023-01-29T07:32:02.422Z,1.50
2023-01-29T07:34:32.450Z,1.50
2023-01-29T07:37:00.923Z,1.60
2023-01-29T07:39:29.503Z,1.60
2023-01-29T07:41:57.882Z,1.50
2023-01-29T07:44:26.573Z,1.60
2023-01-29T07:46:54.788Z,1.60
2023-01-29T07:49:23.378Z,1.60
2023-01-29T07:51:53.065Z,1.70
2023-01-29T07:54:21.707Z,1.70
2023-01-29T07:56:50.094Z,1.70
2023-01-29T07:59:18.678Z,1.70
2023-01-29T08:01:46.925Z,1.80
2023-01-29T08:04:15.418Z,1.80
2023-01-29T08:06:43.657Z,1.80
2023-01-29T08:09:14.582Z,1.80
2023-01-29T08:11:42.918Z,1.90
2023-01-29T08:14:11.616Z,1.90
2023-01-29T08:16:39.945Z,1.90
2023-01-29T08:19:08.879Z,2.00
2023-01-29T08:21:37.224Z,2.00
2023-01-29T08:24:06.505Z,2.00
2023-01-29T08:26:36.040Z,2.00
2023-01-29T08:29:04.716Z,2.00
2023-01-29T08:31:33.585Z,2.00
2023-01-29T08:34:02.268Z,2.00
2023-01-29T08:36:30.862Z,2.10
2023-01-29T08:38:59.685Z,2.10
2023-01-29T08:41:28.118Z,2.20
2023-01-29T08:44:00.380Z,2.20
2023-01-29T08:46:28.819Z,2.20
2023-01-29T08:48:57.417Z,2.20
2023-01-29T08:51:27.375Z,2.30
2023-01-29T08:53:56.155Z,2.30
2023-01-29T08:56:24.747Z,2.30
2023-01-29T08:58:53.417Z,2.30
2023-01-29T09:01:23.008Z,2.30
2023-01-29T09:03:53.111Z,2.40
2023-01-29T09:06:21.419Z,2.40
2023-01-29T09:08:50.109Z,2.40
2023-01-29T09:11:18.399Z,2.50
2023-01-29T09:13:47.126Z,2.50
2023-01-29T09:16:15.431Z,2.50
2023-01-29T09:18:45.650Z,2.50
2023-01-29T09:21:13.954Z,2.60
2023-01-29T09:23:42.704Z,2.50
2023-01-29T09:26:11.052Z,2.60
2023-01-29T09:28:39.675Z,2.60
2023-01-29T09:31:08.011Z,2.60
2023-01-29T09:33:36.597Z,2.70
2023-01-29T09:36:07.287Z,2.70
2023-01-29T09:38:35.877Z,2.70
2023-01-29T09:41:14.235Z,2.70
2023-01-29T09:43:48.220Z,2.70
2023-01-29T09:46:23.994Z,2.70
2023-01-29T09:48:59.800Z,2.80
2023-01-29T09:51:35.196Z,2.80
2023-01-29T09:54:15.953Z,2.80
2023-01-29T09:56:46.474Z,2.80
2023-01-29T09:59:18.338Z,2.80
2023-01-29T10:01:56.705Z,2.80
2023-01-29T10:04:51.869Z,2.90
2023-01-29T10:07:46.735Z,2.90
2023-01-29T10:10:27.980Z,3.00
2023-01-29T10:13:06.914Z,3.00
2023-01-29T10:15:55.781Z,3.00
2023-01-29T10:18:48.651Z,3.00
2023-01-29T10:21:36.419Z,3.10
2023-01-29T10:24:18.500Z,3.10
2023-01-29T10:26:47.328Z,3.10
2023-01-29T10:29:19.954Z,3.10
2023-01-29T10:31:52.217Z,3.10
2023-01-29T10:34:28.817Z,3.20
2023-01-29T10:36:57.943Z,3.20
2023-01-29T10:39:30.968Z,3.20
2023-01-29T10:42:14.368Z,3.20
2023-01-29T10:45:01.551Z,3.20
2023-01-29T10:47:50.718Z,3.30
2023-01-29T10:50:29.712Z,3.30
2023-01-29T10:53:32.033Z,3.30
2023-01-29T10:56:22.285Z,3.40
2023-01-29T10:58:54.744Z,3.40
2023-01-29T11:01:23.127Z,3.50
2023-01-29T11:03:58.926Z,3.50
2023-01-29T11:06:31.113Z,3.50
2023-01-29T11:09:08.189Z,3.50
2023-01-29T11:11:45.256Z,3.40
2023-01-29T11:14:17.393Z,3.40
2023-01-29T11:16:48.086Z,3.30
2023-01-29T11:19:17.967Z,3.30
2023-01-29T11:21:54.403Z,3.30
2023-01-29T11:24:22.916Z,3.30
2023-01-29T11:26:54.307Z,3.30
2023-01-29T11:29:42.267Z,3.40
2023-01-29T11:32:15.153Z,3.40
2023-01-29T11:35:04.411Z,3.50
2023-01-29T11:37:38.483Z,3.50
2023-01-29T11:40:36.791Z,3.50
2023-01-29T11:43:31.709Z,3.50
2023-01-29T11:46:03.285Z,3.60
2023-01-29T11:48:40.983Z,3.60
2023-01-29T11:51:12.025Z,3.60
2023-01-29T11:53:42.094Z,3.60
2023-01-29T11:56:22.218Z,3.60
2023-01-29T11:58:55.473Z,3.50
2023-01-29T12:01:33.038Z,3.50
2023-01-29T12:04:11.198Z,3.50
2023-01-29T12:06:45.260Z,3.50
2023-01-29T12:09:19.511Z,3.50
2023-01-29T12:11:48.230Z,3.50
2023-01-29T12:14:29.943Z,3.50
2023-01-29T12:17:04.485Z,3.50
2023-01-29T12:19:38.111Z,3.40
2023-01-29T12:22:12.078Z,3.40
2023-01-29T12:24:46.499Z,3.40
2023-01-29T12:27:21.006Z,3.20
2023-01-29T12:30:08.345Z,3.20
2023-01-29T12:32:43.892Z,3.20
2023-01-29T12:35:20.295Z,3.20
2023-01-29T12:37:56.791Z,3.10
2023-01-29T12:40:28.536Z,3.10
2023-01-29T12:43:03.974Z,3.10
2023-01-29T12:45:35.522Z,3.10
2023-01-29T12:48:09.355Z,3.10
2023-01-29T12:50:39.502Z,3.10
2023-01-29T12:53:21.082Z,3.10
2023-01-29T12:55:55.599Z,3.10
2023-01-29T12:58:29.110Z,3.10
2023-01-29T13:01:05.088Z,3.10
2023-01-29T13:03:41.175Z,3.10
2023-01-29T13:06:12.807Z,3.10
2023-01-29T13:08:44.356Z,3.10
2023-01-29T13:11:18.801Z,3.10
2023-01-29T13:13:54.614Z,3.20
2023-01-29T13:16:28.737Z,3.20
2023-01-29T13:18:59.168Z,3.20
2023-01-29T13:21:32.017Z,3.20
2023-01-29T13:24:05.820Z,3.20
2023-01-29T13:26:34.591Z,3.20
2023-01-29T13:29:05.567Z,3.20
2023-01-29T13:31:36.938Z,3.20
2023-01-29T13:34:13.792Z,3.20
2023-01-29T13:36:45.233Z,3.30
2023-01-29T13:39:24.349Z,3.20
2023-01-29T13:41:53.921Z,3.30
2023-01-29T13:44:27.310Z,3.30
2023-01-29T13:46:59.733Z,3.20
2023-01-29T13:49:36.054Z,3.20
2023-01-29T13:52:22.345Z,3.20
2023-01-29T13:54:54.648Z,3.20
2023-01-29T13:57:48.615Z,3.20
2023-01-29T14:00:57.444Z,3.20
2023-01-29T14:04:03.695Z,3.20
2023-01-29T14:06:48.508Z,3.20
2023-01-29T14:10:04.627Z,3.20
2023-01-29T14:12:46.836Z,3.20
2023-01-29T14:15:27.025Z,3.20
2023-01-29T14:18:14.215Z,3.20
2023-01-29T14:20:54.109Z,3.10
2023-01-29T14:23:36.812Z,3.10
2023-01-29T14:26:07.430Z,3.10
2023-01-29T14:28:36.592Z,3.10
2023-01-29T14:31:07.946Z,3.10
2023-01-29T14:33:39.809Z,3.10
2023-01-29T14:36:16.870Z,3.10
2023-01-29T14:38:51.903Z,3.00
2023-01-29T14:41:27.677Z,3.00
2023-01-29T14:44:29.593Z,3.00
2023-01-29T14:46:57.891Z,3.00
2023-01-29T14:49:52.252Z,3.00
2023-01-29T14:52:25.832Z,3.00
2023-01-29T14:54:58.406Z,2.90
2023-01-29T14:57:28.013Z,2.90
2023-01-29T15:00:00.743Z,2.90
2023-01-29T15:02:37.180Z,2.90
2023-01-29T15:05:12.078Z,2.90
2023-01-29T15:07:48.399Z,2.80
2023-01-29T15:10:23.195Z,2.80
2023-01-29T15:12:58.230Z,2.80
2023-01-29T15:15:36.410Z,2.70
2023-01-29T15:18:09.054Z,2.70
2023-01-29T15:20:39.735Z,2.70
2023-01-29T15:26:06.087Z,2.70
2023-01-29T15:28:37.496Z,2.70
2023-01-29T15:31:15.196Z,2.70
2023-01-29T15:33:47.100Z,2.70
2023-01-29T15:36:24.752Z,2.80
2023-01-29T15:39:16.255Z,2.70
2023-01-29T15:41:46.837Z,2.70
2023-01-29T15:44:23.676Z,2.70
2023-01-29T15:46:58.147Z,2.60
2023-01-29T15:49:32.076Z,2.60
2023-01-29T15:52:04.104Z,2.60
2023-01-29T15:54:34.967Z,2.60
2023-01-29T15:57:05.618Z,2.60
2023-01-29T15:59:40.299Z,2.60
2023-01-29T16:02:29.349Z,2.60
2023-01-29T16:04:58.779Z,2.60
2023-01-29T16:07:30.185Z,2.60
2023-01-29T16:10:01.743Z,2.60
2023-01-29T16:12:34.709Z,2.60
2023-01-29T16:15:08.718Z,2.60
2023-01-29T16:17:42.631Z,2.60
2023-01-29T16:20:32.085Z,2.50
2023-01-29T16:23:02.018Z,2.50
2023-01-29T16:25:37.252Z,2.50
2023-01-29T16:28:11.385Z,2.50
2023-01-29T16:30:41.591Z,2.70
2023-01-29T16:33:15.594Z,2.50
2023-01-29T16:35:51.666Z,2.50
2023-01-29T16:38:30.447Z,2.50
2023-01-29T16:41:16.595Z,2.50
2023-01-29T16:44:01.817Z,2.50
2023-01-29T16:46:49.730Z,2.50
2023-01-29T16:49:48.879Z,2.50
2023-01-29T16:52:24.794Z,2.50
2023-01-29T16:54:57.093Z,2.50
2023-01-29T16:57:34.015Z,2.50
2023-01-29T17:00:17.771Z,2.40
2023-01-29T17:02:56.142Z,2.50
2023-01-29T17:05:29.526Z,2.50
2023-01-29T17:08:00.398Z,2.60
2023-01-29T17:10:31.212Z,2.50
2023-01-29T17:13:05.581Z,2.50
2023-01-29T17:15:44.650Z,2.50
2023-01-29T17:18:19.870Z,2.50
2023-01-29T17:20:49.103Z,2.50
2023-01-29T17:23:20.617Z,2.50
2023-01-29T17:25:50.341Z,2.50
2023-01-29T17:28:22.736Z,2.50
2023-01-29T17:31:05.727Z,2.50
2023-01-29T17:33:39.248Z,2.50
2023-01-29T17:36:11.749Z,2.50
2023-01-29T17:38:41.692Z,2.60
2023-01-29T17:41:15.428Z,2.60
2023-01-29T17:43:45.208Z,2.60
2023-01-29T17:46:19.362Z,2.60
2023-01-29T17:48:49.949Z,2.60
2023-01-29T17:51:25.032Z,2.60
2023-01-29T17:53:56.781Z,2.60
2023-01-29T17:56:28.492Z,2.60
2023-01-29T17:59:01.442Z,2.60
2023-01-29T18:01:33.368Z,2.60
2023-01-29T18:04:03.407Z,2.60
2023-01-29T18:06:33.035Z,2.60
2023-01-29T18:09:05.779Z,2.60
2023-01-29T18:11:38.465Z,2.60
2023-01-29T18:14:14.279Z,2.60
2023-01-29T18:16:48.162Z,2.70
2023-01-29T18:19:22.959Z,2.70
2023-01-29T18:21:54.065Z,2.60
2023-01-29T18:24:26.640Z,2.70
2023-01-29T18:26:56.909Z,2.70
2023-01-29T18:29:31.238Z,2.70
2023-01-29T18:32:06.621Z,2.60
2023-01-29T18:34:43.760Z,2.60
2023-01-29T18:37:13.701Z,2.70
2023-01-29T18:39:45.196Z,2.70
2023-01-29T18:42:14.628Z,2.70
2023-01-29T18:44:47.515Z,2.70
2023-01-29T18:47:24.500Z,2.70
2023-01-29T18:49:56.035Z,2.70
2023-01-29T18:52:29.387Z,2.70
2023-01-29T18:55:10.157Z,2.70
2023-01-29T18:58:26.123Z,2.70
2023-01-29T19:00:39.690Z,2.70
2023-01-29T19:03:12.604Z,2.70
2023-01-29T19:05:46.002Z,2.70
2023-01-29T19:08:26.667Z,2.70
2023-01-29T19:11:04.638Z,2.70
2023-01-29T19:13:35.103Z,2.70
2023-01-29T19:16:12.087Z,2.70
2023-01-29T19:18:46.803Z,2.70
2023-01-29T19:21:23.145Z,2.80
2023-01-29T19:23:53.986Z,2.80
2023-01-29T19:26:25.820Z,2.80
2023-01-29T19:28:58.053Z,2.80
2023-01-29T19:31:29.548Z,2.80
2023-01-29T19:34:01.542Z,2.80
2023-01-29T19:36:34.267Z,2.80
2023-01-29T19:39:10.292Z,2.80
2023-01-29T19:41:45.863Z,2.80
2023-01-29T19:44:19.681Z,2.80
2023-01-29T19:46:52.250Z,2.60
2023-01-29T19:49:27.154Z,2.80
2023-01-29T19:51:59.945Z,2.90
2023-01-29T19:54:31.037Z,2.70
2023-01-29T19:57:03.167Z,2.70
2023-01-29T19:59:45.851Z,2.80
2023-01-29T20:02:17.760Z,2.80
2023-01-29T20:04:51.332Z,2.80
2023-01-29T20:07:22.264Z,2.80
2023-01-29T20:09:52.743Z,2.70
2023-01-29T20:12:24.100Z,2.80
2023-01-29T20:14:53.548Z,2.80
2023-01-29T20:17:27.317Z,2.80
2023-01-29T20:19:58.688Z,2.80
2023-01-29T20:22:31.563Z,2.80
2023-01-29T20:25:02.123Z,2.90
2023-01-29T20:27:36.074Z,2.80
2023-01-29T20:30:06.964Z,2.80
2023-01-29T20:32:39.156Z,2.80
2023-01-29T20:35:13.969Z,2.70
2023-01-29T20:37:44.282Z,2.80
2023-01-29T20:40:18.048Z,2.80
2023-01-29T20:42:49.943Z,2.80
2023-01-29T20:45:19.148Z,2.80
2023-01-29T20:47:51.789Z,2.80
2023-01-29T20:50:25.242Z,2.80
2023-01-29T20:52:56.514Z,2.80
2023-01-29T20:55:33.232Z,2.80
2023-01-29T20:58:06.926Z,2.80
2023-01-29T21:00:37.759Z,2.80
2023-01-29T21:03:11.084Z,2.80
2023-01-29T21:05:42.334Z,2.80
2023-01-29T21:08:17.255Z,2.80
2023-01-29T21:10:47.493Z,2.80
2023-01-29T21:13:20.825Z,2.80
2023-01-29T21:15:52.280Z,2.80
2023-01-29T21:18:28.351Z,2.70
2023-01-29T21:21:02.154Z,2.70
2023-01-29T21:23:37.337Z,2.80
2023-01-29T21:26:11.248Z,2.80
2023-01-29T21:28:43.860Z,2.70
2023-01-29T21:31:16.812Z,2.80
2023-01-29T21:33:49.552Z,2.80
2023-01-29T21:36:21.420Z,2.60
2023-01-29T21:38:53.692Z,2.70
2023-01-29T21:41:46.057Z,2.80
2023-01-29T21:44:19.702Z,2.70
2023-01-29T21:46:48.873Z,2.80
2023-01-29T21:49:23.625Z,2.70
2023-01-29T21:52:04.960Z,2.70
2023-01-29T21:54:41.334Z,2.70
2023-01-29T21:57:15.737Z,2.70
2023-01-29T21:59:53.167Z,2.80
2023-01-29T22:02:27.056Z,2.70
2023-01-29T22:05:16.589Z,2.70
2023-01-29T22:07:51.886Z,2.70
2023-01-29T22:10:22.542Z,2.70
2023-01-29T22:12:52.106Z,2.70
2023-01-29T22:15:24.032Z,2.70
2023-01-29T22:17:52.749Z,2.70
2023-01-29T22:20:30.012Z,2.70
2023-01-29T22:23:01.870Z,2.90
2023-01-29T22:25:31.596Z,2.80
2023-01-29T22:28:00.122Z,2.70
2023-01-29T22:30:28.784Z,2.80
2023-01-29T22:32:57.120Z,2.70
2023-01-29T22:35:26.127Z,2.70
2023-01-29T22:37:54.825Z,2.70
2023-01-29T22:40:25.810Z,2.70
2023-01-29T22:42:55.741Z,2.70
2023-01-29T22:45:28.370Z,2.70
2023-01-29T22:47:58.598Z,2.70
2023-01-29T22:50:29.268Z,2.70
2023-01-29T22:53:02.176Z,2.70
2023-01-29T22:55:40.090Z,2.70
2023-01-29T22:58:11.855Z,2.70
2023-01-29T23:00:48.993Z,2.70
2023-01-29T23:03:21.259Z,2.90
2023-01-29T23:05:51.182Z,2.70
2023-01-29T23:08:20.399Z,2.70
2023-01-29T23:10:53.063Z,2.70
2023-01-29T23:13:23.406Z,2.70
2023-01-29T23:16:03.085Z,2.70
2023-01-29T23:18:34.207Z,2.70
2023-01-29T23:21:08.217Z,2.70
2023-01-29T23:23:39.446Z,2.70
2023-01-29T23:26:32.887Z,2.70
2023-01-29T23:29:05.000Z,2.90
2023-01-29T23:31:38.612Z,2.70
2023-01-29T23:34:09.564Z,2.70
2023-01-29T23:36:39.866Z,2.70
2023-01-29T23:39:14.329Z,2.70
2023-01-29T23:41:51.461Z,2.70
2023-01-29T23:44:21.672Z,2.70
2023-01-29T23:46:55.415Z,2.70
2023-01-29T23:49:27.176Z,2.70
2023-01-29T23:51:58.013Z,2.70
2023-01-29T23:54:27.695Z,2.70
2023-01-29T23:57:05.041Z,2.70
2023-01-29T23:59:34.269Z,2.70
